sensor_id;sensor_type;location;lat;lon;timestamp;temperature;humidity
10722;DHT22;5412;59.450;18.124;2023-06-26T00:00:13;19.30;99.90
10722;DHT22;5412;59.450;18.124;2023-06-26T00:02:39;19.20;99.90
10722;DHT22;5412;59.450;18.124;2023-06-26T00:05:05;19.20;99.90
10722;DHT22;5412;59.450;18.124;2023-06-26T00:07:32;19.10;99.90
10722;DHT22;5412;59.450;18.124;2023-06-26T00:10:01;19.00;99.90
10722;DHT22;5412;59.450;18.124;2023-06-26T00:12:28;19.00;99.90
10722;DHT22;5412;59.450;18.124;2023-06-26T00:14:54;19.00;99.90
10722;DHT22;5412;59.450;18.124;2023-06-26T00:17:20;18.90;99.90
10722;DHT22;5412;59.450;18.124;2023-06-26T00:19:46;18.80;99.90
10722;DHT22;5412;59.450;18.124;2023-06-26T00:22:12;18.80;99.90
10722;DHT22;5412;59.450;18.124;2023-06-26T00:24:37;18.70;99.90
10722;DHT22;5412;59.450;18.124;2023-06-26T00:27:03;18.60;99.90
10722;DHT22;5412;59.450;18.124;2023-06-26T00:29:29;18.60;99.90
10722;DHT22;5412;59.450;18.124;2023-06-26T00:31:55;18.60;99.90
10722;DHT22;5412;59.450;18.124;2023-06-26T00:34:20;18.60;99.90
10722;DHT22;5412;59.450;18.124;2023-06-26T00:36:46;18.60;99.90
10722;DHT22;5412;59.450;18.124;2023-06-26T00:39:12;18.60;99.90
10722;DHT22;5412;59.450;18.124;2023-06-26T00:41:38;18.60;99.90
10722;DHT22;5412;59.450;18.124;2023-06-26T00:44:04;18.60;99.90
10722;DHT22;5412;59.450;18.124;2023-06-26T00:46:31;18.60;99.90
10722;DHT22;5412;59.450;18.124;2023-06-26T00:48:59;18.50;99.90
10722;DHT22;5412;59.450;18.124;2023-06-26T00:51:26;18.50;99.90
10722;DHT22;5412;59.450;18.124;2023-06-26T00:53:52;18.40;99.90
10722;DHT22;5412;59.450;18.124;2023-06-26T00:56:19;18.40;99.90
10722;DHT22;5412;59.450;18.124;2023-06-26T00:58:45;18.40;99.90
10722;DHT22;5412;59.450;18.124;2023-06-26T01:01:11;18.40;99.90
10722;DHT22;5412;59.450;18.124;2023-06-26T01:03:45;18.40;99.90
10722;DHT22;5412;59.450;18.124;2023-06-26T01:06:13;18.30;99.90
10722;DHT22;5412;59.450;18.124;2023-06-26T01:08:41;18.30;99.90
10722;DHT22;5412;59.450;18.124;2023-06-26T01:11:07;18.20;99.90
10722;DHT22;5412;59.450;18.124;2023-06-26T01:13:33;18.00;99.90
10722;DHT22;5412;59.450;18.124;2023-06-26T01:16:00;18.00;99.90
10722;DHT22;5412;59.450;18.124;2023-06-26T01:18:26;18.10;99.90
10722;DHT22;5412;59.450;18.124;2023-06-26T01:20:52;18.10;99.90
10722;DHT22;5412;59.450;18.124;2023-06-26T01:23:25;18.10;99.90
10722;DHT22;5412;59.450;18.124;2023-06-26T01:26:21;18.10;99.90
10722;DHT22;5412;59.450;18.124;2023-06-26T01:28:49;18.10;99.90
10722;DHT22;5412;59.450;18.124;2023-06-26T01:31:16;18.10;99.90
10722;DHT22;5412;59.450;18.124;2023-06-26T01:33:42;18.10;99.90
10722;DHT22;5412;59.450;18.124;2023-06-26T01:36:09;18.10;99.90
10722;DHT22;5412;59.450;18.124;2023-06-26T01:38:35;18.20;99.90
10722;DHT22;5412;59.450;18.124;2023-06-26T01:41:02;18.20;99.90
10722;DHT22;5412;59.450;18.124;2023-06-26T01:46:09;18.10;99.90
10722;DHT22;5412;59.450;18.124;2023-06-26T01:49:07;18.00;99.90
10722;DHT22;5412;59.450;18.124;2023-06-26T01:51:41;18.10;99.90
10722;DHT22;5412;59.450;18.124;2023-06-26T01:54:10;18.10;99.90
10722;DHT22;5412;59.450;18.124;2023-06-26T01:56:38;18.00;99.90
10722;DHT22;5412;59.450;18.124;2023-06-26T01:59:05;18.00;99.90
10722;DHT22;5412;59.450;18.124;2023-06-26T02:01:32;18.00;99.90
10722;DHT22;5412;59.450;18.124;2023-06-26T02:03:59;18.00;99.90
10722;DHT22;5412;59.450;18.124;2023-06-26T02:06:25;18.00;99.90
10722;DHT22;5412;59.450;18.124;2023-06-26T02:08:51;18.00;99.90
10722;DHT22;5412;59.450;18.124;2023-06-26T02:11:16;18.10;99.90
10722;DHT22;5412;59.450;18.124;2023-06-26T02:13:42;18.00;99.90
10722;DHT22;5412;59.450;18.124;2023-06-26T02:16:08;18.00;99.90
10722;DHT22;5412;59.450;18.124;2023-06-26T02:18:34;18.00;99.90
10722;DHT22;5412;59.450;18.124;2023-06-26T02:20:59;18.10;99.90
10722;DHT22;5412;59.450;18.124;2023-06-26T02:23:25;18.10;99.90
10722;DHT22;5412;59.450;18.124;2023-06-26T02:25:51;18.10;99.90
10722;DHT22;5412;59.450;18.124;2023-06-26T02:28:16;18.10;99.90
10722;DHT22;5412;59.450;18.124;2023-06-26T02:30:42;18.10;99.90
10722;DHT22;5412;59.450;18.124;2023-06-26T02:33:08;18.10;99.90
10722;DHT22;5412;59.450;18.124;2023-06-26T02:35:34;18.10;99.90
10722;DHT22;5412;59.450;18.124;2023-06-26T02:37:59;18.20;99.90
10722;DHT22;5412;59.450;18.124;2023-06-26T02:40:25;18.20;99.90
10722;DHT22;5412;59.450;18.124;2023-06-26T02:42:51;18.10;99.90
10722;DHT22;5412;59.450;18.124;2023-06-26T02:45:16;18.10;99.90
10722;DHT22;5412;59.450;18.124;2023-06-26T02:47:42;18.10;99.90
10722;DHT22;5412;59.450;18.124;2023-06-26T02:50:08;18.10;99.90
10722;DHT22;5412;59.450;18.124;2023-06-26T02:52:34;18.10;99.90
10722;DHT22;5412;59.450;18.124;2023-06-26T02:55:00;18.00;99.90
10722;DHT22;5412;59.450;18.124;2023-06-26T02:57:25;17.90;99.90
10722;DHT22;5412;59.450;18.124;2023-06-26T02:59:51;18.00;99.90
10722;DHT22;5412;59.450;18.124;2023-06-26T03:02:17;18.00;99.90
10722;DHT22;5412;59.450;18.124;2023-06-26T03:04:42;18.00;99.90
10722;DHT22;5412;59.450;18.124;2023-06-26T03:07:08;18.00;99.90
10722;DHT22;5412;59.450;18.124;2023-06-26T03:09:34;18.00;99.90
10722;DHT22;5412;59.450;18.124;2023-06-26T03:12:00;18.00;99.90
10722;DHT22;5412;59.450;18.124;2023-06-26T03:14:26;18.00;99.90
10722;DHT22;5412;59.450;18.124;2023-06-26T03:16:52;17.90;99.90
10722;DHT22;5412;59.450;18.124;2023-06-26T03:19:18;18.00;99.90
10722;DHT22;5412;59.450;18.124;2023-06-26T03:21:44;18.00;99.90
10722;DHT22;5412;59.450;18.124;2023-06-26T03:24:10;18.10;99.90
10722;DHT22;5412;59.450;18.124;2023-06-26T03:26:35;18.20;99.90
10722;DHT22;5412;59.450;18.124;2023-06-26T03:29:01;18.20;99.90
10722;DHT22;5412;59.450;18.124;2023-06-26T03:31:27;18.20;99.90
10722;DHT22;5412;59.450;18.124;2023-06-26T03:33:52;18.40;99.90
10722;DHT22;5412;59.450;18.124;2023-06-26T03:36:18;18.40;99.90
10722;DHT22;5412;59.450;18.124;2023-06-26T03:38:44;18.40;99.90
10722;DHT22;5412;59.450;18.124;2023-06-26T03:41:10;18.40;99.90
10722;DHT22;5412;59.450;18.124;2023-06-26T03:43:36;18.50;99.90
10722;DHT22;5412;59.450;18.124;2023-06-26T03:46:02;18.50;99.90
10722;DHT22;5412;59.450;18.124;2023-06-26T03:48:27;18.60;99.90
10722;DHT22;5412;59.450;18.124;2023-06-26T03:50:53;18.60;99.90
10722;DHT22;5412;59.450;18.124;2023-06-26T03:53:19;18.60;99.90
10722;DHT22;5412;59.450;18.124;2023-06-26T03:55:45;18.70;99.90
10722;DHT22;5412;59.450;18.124;2023-06-26T03:58:10;18.70;99.90
10722;DHT22;5412;59.450;18.124;2023-06-26T04:00:36;18.70;99.90
10722;DHT22;5412;59.450;18.124;2023-06-26T04:03:02;18.80;99.90
10722;DHT22;5412;59.450;18.124;2023-06-26T04:05:28;18.80;99.90
10722;DHT22;5412;59.450;18.124;2023-06-26T04:07:54;18.90;99.90
10722;DHT22;5412;59.450;18.124;2023-06-26T04:10:20;18.90;99.90
10722;DHT22;5412;59.450;18.124;2023-06-26T04:12:47;19.00;99.90
10722;DHT22;5412;59.450;18.124;2023-06-26T04:15:13;19.10;99.90
10722;DHT22;5412;59.450;18.124;2023-06-26T04:17:39;19.10;99.90
10722;DHT22;5412;59.450;18.124;2023-06-26T04:20:05;19.10;99.90
10722;DHT22;5412;59.450;18.124;2023-06-26T04:22:34;19.10;99.90
10722;DHT22;5412;59.450;18.124;2023-06-26T04:25:03;19.10;99.90
10722;DHT22;5412;59.450;18.124;2023-06-26T04:27:29;19.00;99.90
10722;DHT22;5412;59.450;18.124;2023-06-26T04:29:55;19.10;99.90
10722;DHT22;5412;59.450;18.124;2023-06-26T04:32:21;19.10;99.90
10722;DHT22;5412;59.450;18.124;2023-06-26T04:34:47;19.20;99.90
10722;DHT22;5412;59.450;18.124;2023-06-26T04:37:13;19.20;99.90
10722;DHT22;5412;59.450;18.124;2023-06-26T04:39:42;19.20;99.90
10722;DHT22;5412;59.450;18.124;2023-06-26T04:42:08;19.30;99.90
10722;DHT22;5412;59.450;18.124;2023-06-26T04:44:34;19.30;99.90
10722;DHT22;5412;59.450;18.124;2023-06-26T04:47:00;19.40;99.90
10722;DHT22;5412;59.450;18.124;2023-06-26T04:49:28;19.40;99.90
10722;DHT22;5412;59.450;18.124;2023-06-26T04:51:55;19.40;99.90
10722;DHT22;5412;59.450;18.124;2023-06-26T04:54:21;19.50;99.90
10722;DHT22;5412;59.450;18.124;2023-06-26T04:56:47;19.60;99.90
10722;DHT22;5412;59.450;18.124;2023-06-26T04:59:13;19.60;99.90
10722;DHT22;5412;59.450;18.124;2023-06-26T05:01:40;19.70;99.90
10722;DHT22;5412;59.450;18.124;2023-06-26T05:04:06;19.90;99.90
10722;DHT22;5412;59.450;18.124;2023-06-26T05:06:32;19.80;99.90
10722;DHT22;5412;59.450;18.124;2023-06-26T05:08:58;20.00;99.90
10722;DHT22;5412;59.450;18.124;2023-06-26T05:11:25;20.00;99.90
10722;DHT22;5412;59.450;18.124;2023-06-26T05:13:51;20.10;99.90
10722;DHT22;5412;59.450;18.124;2023-06-26T05:16:16;20.20;99.90
10722;DHT22;5412;59.450;18.124;2023-06-26T05:18:42;20.30;99.90
10722;DHT22;5412;59.450;18.124;2023-06-26T05:21:08;20.40;99.90
10722;DHT22;5412;59.450;18.124;2023-06-26T05:23:34;20.40;99.90
10722;DHT22;5412;59.450;18.124;2023-06-26T05:26:01;20.40;99.90
10722;DHT22;5412;59.450;18.124;2023-06-26T05:28:28;20.30;99.90
10722;DHT22;5412;59.450;18.124;2023-06-26T05:30:57;20.40;99.90
10722;DHT22;5412;59.450;18.124;2023-06-26T05:33:24;20.50;99.90
10722;DHT22;5412;59.450;18.124;2023-06-26T05:35:52;20.60;99.90
10722;DHT22;5412;59.450;18.124;2023-06-26T05:38:19;20.70;99.90
10722;DHT22;5412;59.450;18.124;2023-06-26T05:40:45;20.80;99.90
10722;DHT22;5412;59.450;18.124;2023-06-26T05:43:11;21.00;99.90
10722;DHT22;5412;59.450;18.124;2023-06-26T05:45:36;21.10;99.90
10722;DHT22;5412;59.450;18.124;2023-06-26T05:48:02;21.10;99.90
10722;DHT22;5412;59.450;18.124;2023-06-26T05:50:28;21.30;99.90
10722;DHT22;5412;59.450;18.124;2023-06-26T05:52:54;21.30;99.90
10722;DHT22;5412;59.450;18.124;2023-06-26T05:55:21;21.50;99.90
10722;DHT22;5412;59.450;18.124;2023-06-26T05:57:47;21.40;99.90
10722;DHT22;5412;59.450;18.124;2023-06-26T06:00:14;21.50;99.90
10722;DHT22;5412;59.450;18.124;2023-06-26T06:02:40;21.50;99.90
10722;DHT22;5412;59.450;18.124;2023-06-26T06:05:07;21.70;99.90
10722;DHT22;5412;59.450;18.124;2023-06-26T06:07:33;21.80;99.90
10722;DHT22;5412;59.450;18.124;2023-06-26T06:10:00;21.90;99.90
10722;DHT22;5412;59.450;18.124;2023-06-26T06:12:26;22.00;99.90
10722;DHT22;5412;59.450;18.124;2023-06-26T06:14:53;22.10;99.90
10722;DHT22;5412;59.450;18.124;2023-06-26T06:17:20;22.10;99.90
10722;DHT22;5412;59.450;18.124;2023-06-26T06:19:45;22.10;99.90
10722;DHT22;5412;59.450;18.124;2023-06-26T06:22:11;22.20;99.90
10722;DHT22;5412;59.450;18.124;2023-06-26T06:24:37;22.20;99.90
10722;DHT22;5412;59.450;18.124;2023-06-26T06:27:03;22.30;99.90
10722;DHT22;5412;59.450;18.124;2023-06-26T06:29:29;22.50;99.90
10722;DHT22;5412;59.450;18.124;2023-06-26T06:31:54;22.40;99.90
10722;DHT22;5412;59.450;18.124;2023-06-26T06:34:20;22.50;99.90
10722;DHT22;5412;59.450;18.124;2023-06-26T06:36:46;22.60;99.90
10722;DHT22;5412;59.450;18.124;2023-06-26T06:39:12;22.80;99.90
10722;DHT22;5412;59.450;18.124;2023-06-26T06:41:38;22.90;99.90
10722;DHT22;5412;59.450;18.124;2023-06-26T06:44:04;23.00;99.90
10722;DHT22;5412;59.450;18.124;2023-06-26T06:46:29;22.90;99.90
10722;DHT22;5412;59.450;18.124;2023-06-26T06:48:55;23.00;99.90
10722;DHT22;5412;59.450;18.124;2023-06-26T06:51:22;23.10;99.90
10722;DHT22;5412;59.450;18.124;2023-06-26T06:53:48;23.20;99.90
10722;DHT22;5412;59.450;18.124;2023-06-26T06:56:13;23.20;99.90
10722;DHT22;5412;59.450;18.124;2023-06-26T06:58:39;23.40;99.90
10722;DHT22;5412;59.450;18.124;2023-06-26T07:01:09;23.40;99.90
10722;DHT22;5412;59.450;18.124;2023-06-26T07:03:34;23.50;99.90
10722;DHT22;5412;59.450;18.124;2023-06-26T07:06:01;23.50;99.90
10722;DHT22;5412;59.450;18.124;2023-06-26T07:08:28;23.60;99.90
10722;DHT22;5412;59.450;18.124;2023-06-26T07:10:54;23.80;99.90
10722;DHT22;5412;59.450;18.124;2023-06-26T07:13:22;23.70;99.90
10722;DHT22;5412;59.450;18.124;2023-06-26T07:15:48;23.90;99.90
10722;DHT22;5412;59.450;18.124;2023-06-26T07:18:14;24.00;99.90
10722;DHT22;5412;59.450;18.124;2023-06-26T07:20:40;24.10;99.90
10722;DHT22;5412;59.450;18.124;2023-06-26T07:23:06;24.10;99.90
10722;DHT22;5412;59.450;18.124;2023-06-26T07:25:31;24.00;99.90
10722;DHT22;5412;59.450;18.124;2023-06-26T07:27:57;24.10;99.90
10722;DHT22;5412;59.450;18.124;2023-06-26T07:30:23;24.20;99.90
10722;DHT22;5412;59.450;18.124;2023-06-26T07:32:49;24.20;99.90
10722;DHT22;5412;59.450;18.124;2023-06-26T07:35:15;24.20;99.90
10722;DHT22;5412;59.450;18.124;2023-06-26T07:37:41;24.30;99.90
10722;DHT22;5412;59.450;18.124;2023-06-26T07:40:08;24.20;99.90
10722;DHT22;5412;59.450;18.124;2023-06-26T07:42:33;24.30;99.90
10722;DHT22;5412;59.450;18.124;2023-06-26T07:44:59;24.40;99.90
10722;DHT22;5412;59.450;18.124;2023-06-26T07:47:25;24.40;99.90
10722;DHT22;5412;59.450;18.124;2023-06-26T07:49:51;24.50;99.90
10722;DHT22;5412;59.450;18.124;2023-06-26T07:52:18;24.50;99.90
10722;DHT22;5412;59.450;18.124;2023-06-26T07:54:47;24.60;99.90
10722;DHT22;5412;59.450;18.124;2023-06-26T07:57:12;24.60;99.90
10722;DHT22;5412;59.450;18.124;2023-06-26T07:59:38;24.70;99.90
10722;DHT22;5412;59.450;18.124;2023-06-26T08:02:06;24.70;99.90
10722;DHT22;5412;59.450;18.124;2023-06-26T08:04:32;24.80;99.90
10722;DHT22;5412;59.450;18.124;2023-06-26T08:06:59;24.70;99.90
10722;DHT22;5412;59.450;18.124;2023-06-26T08:09:27;25.00;99.90
10722;DHT22;5412;59.450;18.124;2023-06-26T08:11:53;25.10;99.90
10722;DHT22;5412;59.450;18.124;2023-06-26T08:14:19;25.00;99.90
10722;DHT22;5412;59.450;18.124;2023-06-26T08:16:45;25.10;99.90
10722;DHT22;5412;59.450;18.124;2023-06-26T08:19:12;25.30;99.90
10722;DHT22;5412;59.450;18.124;2023-06-26T08:21:39;25.40;99.90
10722;DHT22;5412;59.450;18.124;2023-06-26T08:24:05;25.40;99.90
10722;DHT22;5412;59.450;18.124;2023-06-26T08:26:31;25.40;99.90
10722;DHT22;5412;59.450;18.124;2023-06-26T08:28:56;25.40;99.90
10722;DHT22;5412;59.450;18.124;2023-06-26T08:31:22;25.20;99.90
10722;DHT22;5412;59.450;18.124;2023-06-26T08:33:48;25.30;99.90
10722;DHT22;5412;59.450;18.124;2023-06-26T08:36:14;25.30;99.90
10722;DHT22;5412;59.450;18.124;2023-06-26T08:38:40;25.20;99.90
10722;DHT22;5412;59.450;18.124;2023-06-26T08:41:09;25.20;99.90
10722;DHT22;5412;59.450;18.124;2023-06-26T08:43:35;25.40;99.90
10722;DHT22;5412;59.450;18.124;2023-06-26T08:46:02;25.60;99.90
10722;DHT22;5412;59.450;18.124;2023-06-26T08:48:32;25.60;99.90
10722;DHT22;5412;59.450;18.124;2023-06-26T08:51:04;25.70;99.90
10722;DHT22;5412;59.450;18.124;2023-06-26T08:54:00;25.60;99.90
10722;DHT22;5412;59.450;18.124;2023-06-26T08:56:32;25.70;99.90
10722;DHT22;5412;59.450;18.124;2023-06-26T08:58:58;25.50;99.90
10722;DHT22;5412;59.450;18.124;2023-06-26T09:01:24;25.70;99.90
10722;DHT22;5412;59.450;18.124;2023-06-26T09:03:51;25.80;99.90
10722;DHT22;5412;59.450;18.124;2023-06-26T09:06:17;25.80;99.90
10722;DHT22;5412;59.450;18.124;2023-06-26T09:08:46;25.90;99.90
10722;DHT22;5412;59.450;18.124;2023-06-26T09:11:11;26.10;99.90
10722;DHT22;5412;59.450;18.124;2023-06-26T09:13:38;26.20;99.90
10722;DHT22;5412;59.450;18.124;2023-06-26T09:16:06;26.30;99.90
10722;DHT22;5412;59.450;18.124;2023-06-26T09:18:34;26.20;99.90
10722;DHT22;5412;59.450;18.124;2023-06-26T09:21:00;26.20;99.90
10722;DHT22;5412;59.450;18.124;2023-06-26T09:23:26;26.30;99.90
10722;DHT22;5412;59.450;18.124;2023-06-26T09:25:53;26.30;99.90
10722;DHT22;5412;59.450;18.124;2023-06-26T09:28:19;26.20;99.90
10722;DHT22;5412;59.450;18.124;2023-06-26T09:30:45;26.30;99.90
10722;DHT22;5412;59.450;18.124;2023-06-26T09:33:17;26.30;99.90
10722;DHT22;5412;59.450;18.124;2023-06-26T09:35:46;26.30;99.90
10722;DHT22;5412;59.450;18.124;2023-06-26T09:38:13;26.40;99.90
10722;DHT22;5412;59.450;18.124;2023-06-26T09:40:40;26.30;99.90
10722;DHT22;5412;59.450;18.124;2023-06-26T09:43:09;26.30;99.90
10722;DHT22;5412;59.450;18.124;2023-06-26T09:45:35;26.30;99.90
10722;DHT22;5412;59.450;18.124;2023-06-26T09:48:04;26.40;99.90
10722;DHT22;5412;59.450;18.124;2023-06-26T09:50:35;26.40;99.90
10722;DHT22;5412;59.450;18.124;2023-06-26T09:53:11;26.50;99.90
10722;DHT22;5412;59.450;18.124;2023-06-26T09:55:39;26.60;99.90
10722;DHT22;5412;59.450;18.124;2023-06-26T09:58:06;26.50;99.90
10722;DHT22;5412;59.450;18.124;2023-06-26T10:00:32;26.40;99.90
10722;DHT22;5412;59.450;18.124;2023-06-26T10:03:00;26.40;99.90
10722;DHT22;5412;59.450;18.124;2023-06-26T10:05:26;26.40;99.90
10722;DHT22;5412;59.450;18.124;2023-06-26T10:07:54;26.20;99.90
10722;DHT22;5412;59.450;18.124;2023-06-26T10:10:21;26.40;99.90
10722;DHT22;5412;59.450;18.124;2023-06-26T10:12:49;26.30;99.90
10722;DHT22;5412;59.450;18.124;2023-06-26T10:15:16;26.40;99.90
10722;DHT22;5412;59.450;18.124;2023-06-26T10:17:44;26.60;99.90
10722;DHT22;5412;59.450;18.124;2023-06-26T10:20:15;26.60;99.90
10722;DHT22;5412;59.450;18.124;2023-06-26T10:22:47;26.60;99.90
10722;DHT22;5412;59.450;18.124;2023-06-26T10:25:18;26.50;99.90
10722;DHT22;5412;59.450;18.124;2023-06-26T10:27:58;26.60;99.90
10722;DHT22;5412;59.450;18.124;2023-06-26T10:30:28;26.60;99.90
10722;DHT22;5412;59.450;18.124;2023-06-26T10:32:55;26.60;99.90
10722;DHT22;5412;59.450;18.124;2023-06-26T10:35:23;26.60;99.90
10722;DHT22;5412;59.450;18.124;2023-06-26T10:37:50;26.70;99.90
10722;DHT22;5412;59.450;18.124;2023-06-26T10:40:28;26.50;99.90
10722;DHT22;5412;59.450;18.124;2023-06-26T10:43:09;26.50;99.90
10722;DHT22;5412;59.450;18.124;2023-06-26T10:45:37;26.40;99.90
10722;DHT22;5412;59.450;18.124;2023-06-26T10:48:08;26.40;99.90
10722;DHT22;5412;59.450;18.124;2023-06-26T10:50:34;26.30;99.80
10722;DHT22;5412;59.450;18.124;2023-06-26T10:55:55;26.20;99.90
10722;DHT22;5412;59.450;18.124;2023-06-26T10:58:31;26.40;99.90
10722;DHT22;5412;59.450;18.124;2023-06-26T11:01:25;26.40;99.90
10722;DHT22;5412;59.450;18.124;2023-06-26T11:04:06;26.50;99.50
10722;DHT22;5412;59.450;18.124;2023-06-26T11:06:33;26.40;99.30
10722;DHT22;5412;59.450;18.124;2023-06-26T11:09:07;26.30;99.60
10722;DHT22;5412;59.450;18.124;2023-06-26T11:14:18;26.20;99.70
10722;DHT22;5412;59.450;18.124;2023-06-26T11:16:44;26.20;99.80
10722;DHT22;5412;59.450;18.124;2023-06-26T11:19:11;26.20;99.90
10722;DHT22;5412;59.450;18.124;2023-06-26T11:21:38;26.20;99.70
10722;DHT22;5412;59.450;18.124;2023-06-26T11:24:06;26.10;99.90
10722;DHT22;5412;59.450;18.124;2023-06-26T11:26:38;26.00;99.90
10722;DHT22;5412;59.450;18.124;2023-06-26T11:29:04;26.20;99.90
10722;DHT22;5412;59.450;18.124;2023-06-26T11:31:34;26.20;99.90
10722;DHT22;5412;59.450;18.124;2023-06-26T11:34:05;26.10;99.70
10722;DHT22;5412;59.450;18.124;2023-06-26T11:36:33;25.90;99.90
10722;DHT22;5412;59.450;18.124;2023-06-26T11:39:03;25.90;99.90
10722;DHT22;5412;59.450;18.124;2023-06-26T11:41:32;26.20;99.90
10722;DHT22;5412;59.450;18.124;2023-06-26T11:44:02;26.30;99.90
10722;DHT22;5412;59.450;18.124;2023-06-26T11:46:29;26.30;99.40
10722;DHT22;5412;59.450;18.124;2023-06-26T11:48:55;26.30;99.60
10722;DHT22;5412;59.450;18.124;2023-06-26T11:51:21;26.30;99.60
10722;DHT22;5412;59.450;18.124;2023-06-26T11:53:48;26.20;98.80
10722;DHT22;5412;59.450;18.124;2023-06-26T11:56:17;26.00;99.10
10722;DHT22;5412;59.450;18.124;2023-06-26T11:59:06;26.10;98.90
10722;DHT22;5412;59.450;18.124;2023-06-26T12:04:01;26.20;98.60
10722;DHT22;5412;59.450;18.124;2023-06-26T12:06:33;26.30;98.60
10722;DHT22;5412;59.450;18.124;2023-06-26T12:09:01;26.30;98.40
10722;DHT22;5412;59.450;18.124;2023-06-26T12:11:29;26.40;98.40
10722;DHT22;5412;59.450;18.124;2023-06-26T12:13:56;26.50;99.00
10722;DHT22;5412;59.450;18.124;2023-06-26T12:16:22;26.70;98.90
10722;DHT22;5412;59.450;18.124;2023-06-26T12:18:47;27.00;98.90
10722;DHT22;5412;59.450;18.124;2023-06-26T12:24:03;27.00;98.00
10722;DHT22;5412;59.450;18.124;2023-06-26T12:26:30;27.20;97.90
10722;DHT22;5412;59.450;18.124;2023-06-26T12:29:06;27.30;97.30
10722;DHT22;5412;59.450;18.124;2023-06-26T12:31:33;27.60;97.20
10722;DHT22;5412;59.450;18.124;2023-06-26T12:34:00;27.80;96.50
10722;DHT22;5412;59.450;18.124;2023-06-26T12:36:26;27.90;96.20
10722;DHT22;5412;59.450;18.124;2023-06-26T12:38:55;28.10;96.10
10722;DHT22;5412;59.450;18.124;2023-06-26T12:41:24;28.10;94.60
10722;DHT22;5412;59.450;18.124;2023-06-26T12:43:55;28.30;94.70
10722;DHT22;5412;59.450;18.124;2023-06-26T12:46:36;28.60;93.20
10722;DHT22;5412;59.450;18.124;2023-06-26T12:49:03;28.80;93.40
10722;DHT22;5412;59.450;18.124;2023-06-26T12:51:29;28.80;92.60
10722;DHT22;5412;59.450;18.124;2023-06-26T12:53:55;29.30;92.40
10722;DHT22;5412;59.450;18.124;2023-06-26T12:56:20;29.40;91.10
10722;DHT22;5412;59.450;18.124;2023-06-26T12:58:46;29.30;90.80
10722;DHT22;5412;59.450;18.124;2023-06-26T13:01:12;29.50;90.10
10722;DHT22;5412;59.450;18.124;2023-06-26T13:03:41;29.60;90.20
10722;DHT22;5412;59.450;18.124;2023-06-26T13:06:07;29.50;89.20
10722;DHT22;5412;59.450;18.124;2023-06-26T13:08:34;29.60;89.10
10722;DHT22;5412;59.450;18.124;2023-06-26T13:11:00;29.90;87.20
10722;DHT22;5412;59.450;18.124;2023-06-26T13:13:28;29.80;86.40
10722;DHT22;5412;59.450;18.124;2023-06-26T13:15:54;29.80;85.80
10722;DHT22;5412;59.450;18.124;2023-06-26T13:18:20;30.10;86.40
10722;DHT22;5412;59.450;18.124;2023-06-26T13:20:46;30.00;85.10
10722;DHT22;5412;59.450;18.124;2023-06-26T13:23:12;30.20;84.30
10722;DHT22;5412;59.450;18.124;2023-06-26T13:25:37;30.30;81.30
10722;DHT22;5412;59.450;18.124;2023-06-26T13:28:03;30.10;81.70
10722;DHT22;5412;59.450;18.124;2023-06-26T13:30:29;30.30;81.90
10722;DHT22;5412;59.450;18.124;2023-06-26T13:32:55;30.60;80.90
10722;DHT22;5412;59.450;18.124;2023-06-26T13:35:21;30.80;81.10
10722;DHT22;5412;59.450;18.124;2023-06-26T13:37:46;30.70;77.80
10722;DHT22;5412;59.450;18.124;2023-06-26T13:40:12;30.90;78.70
10722;DHT22;5412;59.450;18.124;2023-06-26T13:42:38;31.10;77.40
10722;DHT22;5412;59.450;18.124;2023-06-26T13:45:05;31.40;76.70
10722;DHT22;5412;59.450;18.124;2023-06-26T13:47:31;31.30;76.40
10722;DHT22;5412;59.450;18.124;2023-06-26T13:49:57;31.40;75.40
10722;DHT22;5412;59.450;18.124;2023-06-26T13:52:23;31.30;75.90
10722;DHT22;5412;59.450;18.124;2023-06-26T13:54:49;31.50;75.30
10722;DHT22;5412;59.450;18.124;2023-06-26T13:57:15;31.60;73.50
10722;DHT22;5412;59.450;18.124;2023-06-26T13:59:40;31.90;73.40
10722;DHT22;5412;59.450;18.124;2023-06-26T14:02:07;32.00;72.20
10722;DHT22;5412;59.450;18.124;2023-06-26T14:04:34;31.70;71.50
10722;DHT22;5412;59.450;18.124;2023-06-26T14:06:59;31.80;71.30
10722;DHT22;5412;59.450;18.124;2023-06-26T14:09:25;32.00;69.50
10722;DHT22;5412;59.450;18.124;2023-06-26T14:11:51;31.80;68.80
10722;DHT22;5412;59.450;18.124;2023-06-26T14:14:17;31.80;68.90
10722;DHT22;5412;59.450;18.124;2023-06-26T14:16:43;31.80;69.20
10722;DHT22;5412;59.450;18.124;2023-06-26T14:19:08;31.80;69.20
10722;DHT22;5412;59.450;18.124;2023-06-26T14:21:40;32.10;68.70
10722;DHT22;5412;59.450;18.124;2023-06-26T14:24:06;31.90;66.30
10722;DHT22;5412;59.450;18.124;2023-06-26T14:26:31;32.40;66.60
10722;DHT22;5412;59.450;18.124;2023-06-26T14:28:59;32.30;67.60
10722;DHT22;5412;59.450;18.124;2023-06-26T14:31:25;31.90;68.10
10722;DHT22;5412;59.450;18.124;2023-06-26T14:33:51;32.10;69.00
10722;DHT22;5412;59.450;18.124;2023-06-26T14:36:17;32.40;68.40
10722;DHT22;5412;59.450;18.124;2023-06-26T14:38:42;32.50;67.90
10722;DHT22;5412;59.450;18.124;2023-06-26T14:41:08;32.70;68.10
10722;DHT22;5412;59.450;18.124;2023-06-26T14:43:34;32.90;67.20
10722;DHT22;5412;59.450;18.124;2023-06-26T14:46:00;33.20;66.30
10722;DHT22;5412;59.450;18.124;2023-06-26T14:48:31;33.00;65.80
10722;DHT22;5412;59.450;18.124;2023-06-26T14:50:59;33.00;65.50
10722;DHT22;5412;59.450;18.124;2023-06-26T14:53:25;32.90;63.70
10722;DHT22;5412;59.450;18.124;2023-06-26T14:55:51;33.30;64.20
10722;DHT22;5412;59.450;18.124;2023-06-26T14:58:17;33.30;63.30
10722;DHT22;5412;59.450;18.124;2023-06-26T15:00:42;33.30;63.60
10722;DHT22;5412;59.450;18.124;2023-06-26T15:03:09;33.20;63.20
10722;DHT22;5412;59.450;18.124;2023-06-26T15:05:35;33.50;63.20
10722;DHT22;5412;59.450;18.124;2023-06-26T15:08:00;33.70;62.80
10722;DHT22;5412;59.450;18.124;2023-06-26T15:10:26;33.60;61.10
10722;DHT22;5412;59.450;18.124;2023-06-26T15:12:52;33.60;61.30
10722;DHT22;5412;59.450;18.124;2023-06-26T15:15:19;33.40;61.30
10722;DHT22;5412;59.450;18.124;2023-06-26T15:17:44;33.30;61.10
10722;DHT22;5412;59.450;18.124;2023-06-26T15:20:10;33.50;61.20
10722;DHT22;5412;59.450;18.124;2023-06-26T15:22:36;33.60;61.60
10722;DHT22;5412;59.450;18.124;2023-06-26T15:25:02;33.80;60.60
10722;DHT22;5412;59.450;18.124;2023-06-26T15:27:28;33.60;59.60
10722;DHT22;5412;59.450;18.124;2023-06-26T15:29:53;33.60;59.80
10722;DHT22;5412;59.450;18.124;2023-06-26T15:32:19;33.90;59.40
10722;DHT22;5412;59.450;18.124;2023-06-26T15:34:45;33.80;58.90
10722;DHT22;5412;59.450;18.124;2023-06-26T15:37:12;33.90;58.50
10722;DHT22;5412;59.450;18.124;2023-06-26T15:39:38;33.80;58.20
10722;DHT22;5412;59.450;18.124;2023-06-26T15:42:05;33.60;58.50